CheckWX is a tool to help pilots better visualize weather data.  It is not intended as a substitute for an official pre-flight weather briefing.

13:31:20 UTC

LDOS TAF
Osijek Airport
Osijek, Croatia
TAF LDOS 071125Z 0712/0812 VRB02KT 8000 NSC TX07/0712Z TNM01/0721Z BECMG 0716/0719 0200 FG VV001 PROB40 0721/0806 FZFG BECMG 0808/0810 2000 BR OVC004

Dec-7@
12:00 UTC

Dec-7 @ 12:00 UTC

Dec-7@
16:00 UTC

Dec-7 @ 16:00 UTC

TAF LDOS 071125Z 0712/0812 VRB02KT 8000 NSC TX07/0712Z TNM01/0721Z
Wind
  • Variable at 2 KTS
Cloud Levels
  • No significant clouds

Dec-7@
16:00 UTC

Dec-7 @ 16:00 UTC

Dec-8@
08:00 UTC

Dec-8 @ 08:00 UTC

BECMG 0716/0719 0200 FG VV001

Becoming

Becoming Conditions expected by Sat, Dec 7, 2019 @ 19:00 UTC

Wind
  • Variable at 2 KTS
Conditions
Fog
Cloud Levels
  • Vertical visibility at 100' AGL

Dec-7@
21:00 UTC

Dec-7 @ 21:00 UTC

Dec-8@
06:00 UTC

Dec-8 @ 06:00 UTC

PROB40 0721/0806 FZFG

Probable - 40% Likelihood

Probable - 40% Likelihood during this time.

Conditions
Freezing Fog

Dec-8@
08:00 UTC

Dec-8 @ 08:00 UTC

Dec-8@
12:00 UTC

Dec-8 @ 12:00 UTC

BECMG 0808/0810 2000 BR OVC004

Becoming

Becoming Conditions expected by Sun, Dec 8, 2019 @ 10:00 UTC

Wind
  • Variable at 2 KTS
Conditions
Mist
Cloud Levels
  • Overcast at 400' AGL